Time;durP1;ratioP1;P1;durP2;ratioP2;P2;SDS_P1;SDS_P2;PMS_P1;PMS_P2;Temp;Humidity;BMP_temperature;BMP_pressure;BME280_temperature;BME280_humidity;BME280_pressure;Samples;Min_cycle;Max_cycle;Signal;HPM_P1;HPM_P2
2023/09/03 00:00:39;;;;;;;;;;;;;;;26.56;25.93;101046.94;5114672;28;20362;-66
2023/09/03 00:03:04;;;;;;;;;;;;;;;26.58;25.85;101060.44;5097813;28;19912;-66
2023/09/03 00:05:30;;;;;;;;;;;;;;;26.61;25.76;101059.88;5094311;28;19947;-66
2023/09/03 00:07:55;;;;;;;;;;;;;;;26.59;26.08;101062.06;5094471;28;19938;-66
2023/09/03 00:10:24;;;;;;;;;;;;;;;26.59;25.80;101068.38;5094433;28;19912;-66
2023/09/03 00:12:50;;;;;;;;;;;;;;;26.60;25.85;101067.31;5094353;28;19965;-66
2023/09/03 00:15:15;;;;;;;;;;;;;;;26.61;25.97;101066.19;5092939;28;20370;-66
2023/09/03 00:17:40;;;;;;;;;;;;;;;26.68;25.85;101065.88;5093750;28;19916;-66
2023/09/03 00:20:06;;;;;;;;;;;;;;;26.71;25.83;101065.31;5094354;28;19958;-66
2023/09/03 00:22:31;;;;;;;;;;;;;;;26.68;25.83;101065.06;5094212;28;20363;-66
2023/09/03 00:24:57;;;;;;;;;;;;;;;26.65;25.90;101069.19;5093147;28;20283;-66
2023/09/03 00:27:22;;;;;;;;;;;;;;;26.67;25.83;101075.28;5093939;28;19919;-66
2023/09/03 00:29:47;;;;;;;;;;;;;;;26.69;26.06;101075.81;5093313;28;19912;-66
2023/09/03 00:32:12;;;;;;;;;;;;;;;26.67;25.55;101079.94;5093324;28;19931;-66
2023/09/03 00:34:38;;;;;;;;;;;;;;;26.68;25.78;101098.13;5093825;28;19912;-66
2023/09/03 00:37:03;;;;;;;;;;;;;;;26.65;25.69;101096.75;5093505;28;19993;-66
2023/09/03 00:39:29;;;;;;;;;;;;;;;26.63;25.61;101093.47;5093721;28;19922;-66
2023/09/03 00:41:54;;;;;;;;;;;;;;;26.64;25.85;101095.94;5093618;28;20015;-66
2023/09/03 00:44:20;;;;;;;;;;;;;;;26.63;25.70;101101.72;5093970;28;19918;-66
2023/09/03 00:46:45;;;;;;;;;;;;;;;26.58;25.64;101104.50;5093882;28;19919;-66
2023/09/03 00:49:11;;;;;;;;;;;;;;;26.58;25.61;101099.00;5083809;28;19912;-66
2023/09/03 00:51:37;;;;;;;;;;;;;;;26.58;25.81;101101.75;5073527;28;19926;-66
2023/09/03 00:54:03;;;;;;;;;;;;;;;26.57;25.70;101102.84;5072530;28;20315;-66
2023/09/03 00:56:29;;;;;;;;;;;;;;;26.53;25.62;101104.53;5079972;28;20300;-66
2023/09/03 00:58:55;;;;;;;;;;;;;;;26.55;25.51;101105.06;5075260;28;19974;-66
2023/09/03 01:01:21;;;;;;;;;;;;;;;26.56;25.52;101117.72;5091519;28;19919;-66
2023/09/03 01:03:48;;;;;;;;;;;;;;;26.54;25.77;101107.00;5072929;28;19970;-66
2023/09/03 01:06:13;;;;;;;;;;;;;;;26.50;25.66;101119.69;5073130;28;19955;-66
2023/09/03 01:08:38;;;;;;;;;;;;;;;26.53;25.71;101108.09;5073239;28;20002;-66
2023/09/03 01:11:04;;;;;;;;;;;;;;;26.50;25.61;101105.91;5073263;28;19951;-66
2023/09/03 01:13:29;;;;;;;;;;;;;;;26.50;25.68;101096.81;5072935;28;19935;-66
2023/09/03 01:15:56;;;;;;;;;;;;;;;26.47;25.71;101112.00;5089680;28;19916;-66
2023/09/03 01:18:23;;;;;;;;;;;;;;;26.46;25.88;101119.41;5092853;28;19920;-66
2023/09/03 01:21:07;;;;;;;;;;;;;;;26.44;25.62;101118.88;5092813;28;19916;-65
2023/09/03 01:23:53;;;;;;;;;;;;;;;26.46;25.79;101115.84;5093114;28;20387;-66
2023/09/03 01:26:31;;;;;;;;;;;;;;;26.46;25.80;101124.13;5074912;28;19985;-65
2023/09/03 01:28:58;;;;;;;;;;;;;;;26.45;25.94;101120.53;5079303;28;19912;-65
2023/09/03 01:31:23;;;;;;;;;;;;;;;26.45;25.78;101119.72;5092997;28;20333;-65
2023/09/03 01:33:49;;;;;;;;;;;;;;;26.44;25.86;101121.66;5092312;28;20014;-65
2023/09/03 01:36:15;;;;;;;;;;;;;;;26.43;25.81;101114.50;5092586;28;19963;-65
2023/09/03 01:38:40;;;;;;;;;;;;;;;26.43;25.75;101114.50;5092621;28;19916;-65
2023/09/03 01:41:06;;;;;;;;;;;;;;;26.42;25.86;101112.84;5092983;28;20374;-65
2023/09/03 01:43:31;;;;;;;;;;;;;;;26.41;25.75;101113.97;5091605;28;19951;-65
2023/09/03 01:46:03;;;;;;;;;;;;;;;26.36;26.07;101102.97;5093019;28;20376;-66
2023/09/03 01:48:37;;;;;;;;;;;;;;;26.35;26.09;101101.31;5092970;28;20285;-66
2023/09/03 01:51:04;;;;;;;;;;;;;;;26.31;26.43;101114.00;5093019;28;20322;-66
2023/09/03 01:53:48;;;;;;;;;;;;;;;26.27;26.41;101110.19;5092668;28;19955;-66
2023/09/03 01:56:14;;;;;;;;;;;;;;;26.26;26.64;101112.13;5094622;28;19919;-66
2023/09/03 01:58:41;;;;;;;;;;;;;;;26.24;26.33;101111.59;5093037;28;19920;-66
2023/09/03 02:01:08;;;;;;;;;;;;;;;26.24;26.56;101119.00;5092753;28;19961;-65
2023/09/03 02:03:36;;;;;;;;;;;;;;;26.26;26.61;101117.63;5072565;28;19927;-65
2023/09/03 02:06:01;;;;;;;;;;;;;;;26.27;26.52;101123.97;5071172;28;19916;-66
2023/09/03 02:08:27;;;;;;;;;;;;;;;26.24;26.72;101119.84;5075005;28;19920;-65
2023/09/03 02:10:53;;;;;;;;;;;;;;;26.23;26.50;101123.69;5082170;28;20002;-65
2023/09/03 02:13:18;;;;;;;;;;;;;;;26.24;26.70;101132.78;5096943;28;19918;-65
2023/09/03 02:15:43;;;;;;;;;;;;;;;26.22;26.98;101127.53;5096889;28;20359;-65
2023/09/03 02:18:08;;;;;;;;;;;;;;;26.19;26.62;101125.38;5083730;28;19920;-65
2023/09/03 02:20:34;;;;;;;;;;;;;;;26.15;26.78;101124.28;5076338;28;19947;-66
2023/09/03 02:22:59;;;;;;;;;;;;;;;26.16;26.66;101125.13;5076506;28;19923;-66
2023/09/03 02:25:24;;;;;;;;;;;;;;;26.16;26.70;101134.19;5084477;28;20262;-65
2023/09/03 02:27:50;;;;;;;;;;;;;;;26.15;26.79;101148.22;5096353;28;19981;-66
2023/09/03 02:30:16;;;;;;;;;;;;;;;26.14;26.70;101152.09;5096404;28;20008;-66
2023/09/03 02:32:41;;;;;;;;;;;;;;;26.14;26.85;101157.59;5096063;28;19924;-65
2023/09/03 02:35:07;;;;;;;;;;;;;;;26.11;26.76;101155.41;5096425;28;20262;-65
2023/09/03 02:37:32;;;;;;;;;;;;;;;26.07;27.05;101147.69;5096379;28;19938;-65
2023/09/03 02:39:58;;;;;;;;;;;;;;;26.04;27.13;101151.03;5096366;28;20360;-65
2023/09/03 02:42:24;;;;;;;;;;;;;;;26.06;27.21;101148.00;5096576;28;19919;-66
2023/09/03 02:44:49;;;;;;;;;;;;;;;25.94;27.27;101140.06;5096846;28;19912;-66
2023/09/03 02:47:14;;;;;;;;;;;;;;;25.96;27.33;101131.53;5096215;28;20392;-66
2023/09/03 02:49:40;;;;;;;;;;;;;;;25.94;27.44;101128.22;5096070;28;19912;-66
2023/09/03 02:52:05;;;;;;;;;;;;;;;25.89;27.06;101137.28;5096227;28;19919;-66
2023/09/03 02:54:30;;;;;;;;;;;;;;;25.87;27.16;101137.59;5095973;28;19998;-66
2023/09/03 02:56:55;;;;;;;;;;;;;;;25.88;27.49;101132.91;5115723;28;19973;-66
2023/09/03 02:59:20;;;;;;;;;;;;;;;25.81;27.29;101135.94;5117233;28;19915;-66
2023/09/03 03:01:46;;;;;;;;;;;;;;;25.79;27.75;101140.06;5111884;28;19912;-66
2023/09/03 03:04:12;;;;;;;;;;;;;;;25.74;27.69;101140.91;5096987;28;20238;-65
2023/09/03 03:06:37;;;;;;;;;;;;;;;25.72;27.34;101151.38;5096371;28;19912;-66
2023/09/03 03:09:04;;;;;;;;;;;;;;;25.70;27.67;101153.56;5096338;28;19935;-66
2023/09/03 03:11:29;;;;;;;;;;;;;;;25.69;27.50;101152.75;5096173;28;19912;-66
2023/09/03 03:13:55;;;;;;;;;;;;;;;25.69;27.70;101161.00;5096122;28;19912;-66
2023/09/03 03:16:20;;;;;;;;;;;;;;;25.71;27.53;101169.00;5095778;28;19912;-66
2023/09/03 03:18:45;;;;;;;;;;;;;;;25.62;27.64;101171.47;5094430;28;19916;-66
2023/09/03 03:21:16;;;;;;;;;;;;;;;25.66;27.29;101166.25;5095512;28;19912;-66
2023/09/03 03:23:42;;;;;;;;;;;;;;;25.66;27.41;101152.47;5095412;28;19997;-66
2023/09/03 03:26:10;;;;;;;;;;;;;;;25.66;28.01;101147.78;5095522;28;19912;-66
2023/09/03 03:28:35;;;;;;;;;;;;;;;25.65;27.69;101146.16;5096051;28;19991;-66
2023/09/03 03:31:14;;;;;;;;;;;;;;;25.65;27.92;101143.41;5096513;28;20361;-66
2023/09/03 03:33:40;;;;;;;;;;;;;;;25.64;27.91;101140.94;5096085;28;19912;-66
2023/09/03 03:36:06;;;;;;;;;;;;;;;25.63;27.58;101148.38;5096270;28;19912;-66
2023/09/03 03:38:31;;;;;;;;;;;;;;;25.54;28.06;101140.94;5095218;28;19920;-66
2023/09/03 03:41:09;;;;;;;;;;;;;;;25.53;28.10;101139.31;5095152;28;19983;-66
2023/09/03 03:43:39;;;;;;;;;;;;;;;25.55;27.89;101121.41;5094833;28;20007;-66
2023/09/03 03:46:06;;;;;;;;;;;;;;;25.56;28.26;101123.06;5094935;28;19938;-66
2023/09/03 03:48:31;;;;;;;;;;;;;;;25.53;27.84;101133.81;5093877;28;20407;-66
2023/09/03 03:50:56;;;;;;;;;;;;;;;25.46;28.10;101134.94;5095096;28;19951;-66
2023/09/03 03:53:22;;;;;;;;;;;;;;;25.47;28.15;101133.00;5094970;28;19916;-66
2023/09/03 03:55:47;;;;;;;;;;;;;;;25.47;28.21;101147.56;5103926;28;19918;-66
2023/09/03 03:58:13;;;;;;;;;;;;;;;25.47;28.43;101146.75;5115032;28;19916;-66
2023/09/03 04:00:38;;;;;;;;;;;;;;;25.44;28.43;101150.03;5115136;28;19911;-66
2023/09/03 04:03:03;;;;;;;;;;;;;;;25.47;28.20;101152.25;5098478;28;20304;-66
2023/09/03 04:05:28;;;;;;;;;;;;;;;25.47;28.46;101144.81;5094801;28;19912;-66
2023/09/03 04:07:54;;;;;;;;;;;;;;;25.45;28.43;101136.00;5094392;28;20491;-66
2023/09/03 04:10:19;;;;;;;;;;;;;;;25.46;28.25;101139.59;5094927;28;19937;-66
2023/09/03 04:12:44;;;;;;;;;;;;;;;25.45;28.47;101136.00;5094560;28;19919;-66
2023/09/03 04:15:10;;;;;;;;;;;;;;;25.50;28.38;101130.50;5093799;28;19924;-66
2023/09/03 04:17:35;;;;;;;;;;;;;;;25.52;28.12;101126.66;5093807;28;19927;-66
2023/09/03 04:20:03;;;;;;;;;;;;;;;25.51;28.60;101136.84;5094244;28;19912;-66
2023/09/03 04:22:28;;;;;;;;;;;;;;;25.51;28.46;101136.84;5094100;28;20327;-66
2023/09/03 04:24:54;;;;;;;;;;;;;;;25.54;28.23;101133.53;5093877;28;20361;-66
2023/09/03 04:27:19;;;;;;;;;;;;;;;25.52;28.40;101144.00;5094115;28;20285;-66
2023/09/03 04:29:44;;;;;;;;;;;;;;;25.52;28.45;101145.91;5093645;28;19918;-66
2023/09/03 04:32:10;;;;;;;;;;;;;;;25.60;27.97;101145.34;5093832;28;19951;-66
2023/09/03 04:34:36;;;;;;;;;;;;;;;25.56;28.09;101139.59;5093922;28;19947;-66
2023/09/03 04:37:01;;;;;;;;;;;;;;;25.53;28.12;101137.38;5093829;28;19994;-66
2023/09/03 04:39:26;;;;;;;;;;;;;;;25.52;28.35;101134.91;5094092;28;19912;-66
2023/09/03 04:41:51;;;;;;;;;;;;;;;25.48;28.36;101140.97;5093606;28;20423;-66
2023/09/03 04:44:17;;;;;;;;;;;;;;;25.43;28.41;101138.22;5093649;28;19919;-66
2023/09/03 04:46:42;;;;;;;;;;;;;;;25.43;28.00;101140.16;5093781;28;19918;-66
2023/09/03 04:49:07;;;;;;;;;;;;;;;25.42;28.30;101133.00;5093741;28;20297;-66
2023/09/03 04:51:34;;;;;;;;;;;;;;;25.39;28.10;101137.13;5093507;28;19916;-66
2023/09/03 04:54:00;;;;;;;;;;;;;;;25.42;27.94;101139.31;5092744;28;20404;-64
2023/09/03 04:56:25;;;;;;;;;;;;;;;25.40;28.38;101143.44;5108529;28;20042;-64
2023/09/03 04:58:50;;;;;;;;;;;;;;;25.40;28.65;101144.25;5112540;28;19923;-66
2023/09/03 05:01:16;;;;;;;;;;;;;;;25.38;28.72;101146.47;5094162;28;20356;-65
2023/09/03 05:03:41;;;;;;;;;;;;;;;25.41;28.63;101148.69;5091710;28;19931;-65
2023/09/03 05:06:11;;;;;;;;;;;;;;;25.37;28.60;101149.50;5093484;28;19917;-65
2023/09/03 05:08:36;;;;;;;;;;;;;;;25.37;28.51;101152.25;5093389;28;19919;-65
2023/09/03 05:11:07;;;;;;;;;;;;;;;25.38;28.84;101148.41;5092527;28;21270;-65
2023/09/03 05:13:32;;;;;;;;;;;;;;;25.40;28.45;101154.44;5092643;28;19970;-65
2023/09/03 05:15:57;;;;;;;;;;;;;;;25.47;28.24;101153.06;5092988;28;19975;-65
2023/09/03 05:18:22;;;;;;;;;;;;;;;25.44;28.35;101147.28;5092946;28;19919;-64
2023/09/03 05:20:48;;;;;;;;;;;;;;;25.47;28.32;101149.50;5093096;28;20299;-65
2023/09/03 05:23:13;;;;;;;;;;;;;;;25.53;28.72;101151.13;5092832;28;20322;-65
2023/09/03 05:25:38;;;;;;;;;;;;;;;25.51;28.50;101153.34;5092933;28;19912;-65
2023/09/03 05:28:04;;;;;;;;;;;;;;;25.58;28.50;101148.38;5092982;28;19912;-65
2023/09/03 05:30:30;;;;;;;;;;;;;;;25.57;28.27;101148.66;5092897;28;20002;-65
2023/09/03 05:32:55;;;;;;;;;;;;;;;25.58;28.40;101150.31;5092963;28;19920;-65
2023/09/03 05:35:20;;;;;;;;;;;;;;;25.51;28.39;101147.84;5092818;28;19912;-64
2023/09/03 05:37:45;;;;;;;;;;;;;;;25.52;28.50;101141.25;5092873;28;19916;-65
2023/09/03 05:40:11;;;;;;;;;;;;;;;25.54;28.72;101157.44;5092815;28;20320;-65
2023/09/03 05:42:36;;;;;;;;;;;;;;;25.53;28.69;101159.38;5091863;28;19919;-65
2023/09/03 05:45:01;;;;;;;;;;;;;;;25.57;28.59;101167.91;5092569;28;19953;-65
2023/09/03 05:47:26;;;;;;;;;;;;;;;25.58;28.55;101170.38;5092626;28;20483;-66
2023/09/03 05:49:56;;;;;;;;;;;;;;;25.62;28.26;101176.16;5092702;28;19995;-65
2023/09/03 05:52:22;;;;;;;;;;;;;;;25.68;28.21;101175.03;5075500;28;20400;-65
2023/09/03 05:54:47;;;;;;;;;;;;;;;25.69;28.47;101180.25;5074236;28;19912;-65
2023/09/03 05:57:13;;;;;;;;;;;;;;;25.69;28.12;101187.69;5095845;28;20036;-65
2023/09/03 05:59:38;;;;;;;;;;;;;;;25.72;28.35;101178.88;5073960;28;19916;-66
2023/09/03 06:02:03;;;;;;;;;;;;;;;25.73;28.11;101176.97;5072576;28;19913;-66
2023/09/03 06:04:29;;;;;;;;;;;;;;;25.72;28.14;101169.81;5072404;28;20365;-65
2023/09/03 06:06:54;;;;;;;;;;;;;;;25.74;28.30;101170.34;5072821;28;19939;-65
2023/09/03 06:09:20;;;;;;;;;;;;;;;25.71;28.45;101179.19;5072290;28;20397;-65
2023/09/03 06:11:48;;;;;;;;;;;;;;;25.73;28.23;101171.47;5091992;28;19973;-65
2023/09/03 06:14:14;;;;;;;;;;;;;;;25.74;28.29;101173.09;5092623;28;20290;-65
2023/09/03 06:16:39;;;;;;;;;;;;;;;25.79;28.27;101182.16;5092600;28;19916;-65
2023/09/03 06:19:04;;;;;;;;;;;;;;;25.79;28.28;101184.09;5092397;28;20406;-65
2023/09/03 06:21:30;;;;;;;;;;;;;;;25.83;28.54;101182.44;5092569;28;19912;-65
2023/09/03 06:23:55;;;;;;;;;;;;;;;25.81;28.50;101184.66;5091193;28;19961;-65
2023/09/03 06:26:21;;;;;;;;;;;;;;;25.85;28.48;101183.81;5092526;28;19927;-65
2023/09/03 06:28:46;;;;;;;;;;;;;;;25.91;28.11;101186.53;5092485;28;19913;-65
2023/09/03 06:31:12;;;;;;;;;;;;;;;25.90;28.42;101188.47;5092581;28;20372;-65
2023/09/03 06:33:37;;;;;;;;;;;;;;;25.92;28.52;101197.31;5092648;28;20310;-65
2023/09/03 06:36:03;;;;;;;;;;;;;;;25.97;28.64;101210.25;5092529;28;19912;-65
2023/09/03 06:38:29;;;;;;;;;;;;;;;26.00;28.55;101202.25;5092213;28;20053;-65
2023/09/03 06:40:54;;;;;;;;;;;;;;;26.05;28.63;101210.47;5092274;28;19912;-65
2023/09/03 06:43:19;;;;;;;;;;;;;;;26.15;28.16;101215.16;5092436;28;20009;-65
2023/09/03 06:45:45;;;;;;;;;;;;;;;26.21;28.40;101221.47;5092534;28;20424;-65
2023/09/03 06:48:10;;;;;;;;;;;;;;;26.23;28.56;101213.75;5092156;28;20345;-65
2023/09/03 06:50:35;;;;;;;;;;;;;;;26.30;28.29;101214.28;5092040;28;19919;-66
2023/09/03 06:53:00;;;;;;;;;;;;;;;26.39;28.27;101215.34;5091994;28;19920;-65
2023/09/03 06:55:28;;;;;;;;;;;;;;;26.45;28.53;101205.94;5089263;28;19915;-66
2023/09/03 06:57:53;;;;;;;;;;;;;;;26.56;28.42;101205.88;5115774;28;19916;-65
2023/09/03 07:00:19;;;;;;;;;;;;;;;26.66;28.62;101205.88;5116057;28;19912;-66
2023/09/03 07:02:44;;;;;;;;;;;;;;;26.73;28.36;101209.13;5102733;28;19951;-65
2023/09/03 07:05:09;;;;;;;;;;;;;;;26.78;28.20;101211.88;5095583;28;19920;-66
2023/09/03 07:07:35;;;;;;;;;;;;;;;26.85;28.42;101217.06;5095822;28;19912;-66
2023/09/03 07:10:01;;;;;;;;;;;;;;;26.89;28.17;101217.31;5095963;28;20425;-66
2023/09/03 07:12:26;;;;;;;;;;;;;;;26.93;28.05;101221.13;5094168;28;19916;-65
2023/09/03 07:14:51;;;;;;;;;;;;;;;26.94;27.74;101218.09;5095484;28;19920;-66
2023/09/03 07:17:16;;;;;;;;;;;;;;;26.96;27.79;101217.81;5095569;28;19962;-66
2023/09/03 07:19:41;;;;;;;;;;;;;;;27.00;27.65;101216.13;5095566;28;20010;-66
2023/09/03 07:22:07;;;;;;;;;;;;;;;27.02;27.32;101213.91;5095673;28;19912;-66
2023/09/03 07:24:32;;;;;;;;;;;;;;;27.12;27.13;101215.78;5095645;28;19926;-66
2023/09/03 07:26:57;;;;;;;;;;;;;;;27.14;27.13;101208.88;5095674;28;20364;-66
2023/09/03 07:29:22;;;;;;;;;;;;;;;27.30;27.25;101215.09;5095212;28;20325;-66
2023/09/03 07:31:48;;;;;;;;;;;;;;;27.37;27.05;101214.78;5095245;28;20033;-66
2023/09/03 07:34:14;;;;;;;;;;;;;;;27.43;26.99;101213.63;5095271;28;19924;-66
2023/09/03 07:36:39;;;;;;;;;;;;;;;27.48;26.83;101219.09;5094022;28;19916;-66
2023/09/03 07:39:11;;;;;;;;;;;;;;;27.53;27.01;101230.09;5095326;28;20007;-66
2023/09/03 07:41:38;;;;;;;;;;;;;;;27.58;26.30;101218.19;5095334;28;19954;-66
2023/09/03 07:44:04;;;;;;;;;;;;;;;27.64;26.35;101218.97;5094936;28;19943;-66
2023/09/03 07:46:29;;;;;;;;;;;;;;;27.67;26.39;101212.88;5094921;28;19962;-66
2023/09/03 07:48:54;;;;;;;;;;;;;;;27.71;26.22;101213.94;5094838;28;19961;-66
2023/09/03 07:51:20;;;;;;;;;;;;;;;27.72;26.22;101216.41;5094145;28;19920;-66
2023/09/03 07:53:47;;;;;;;;;;;;;;;27.77;26.14;101210.03;5094276;28;19920;-66
2023/09/03 07:56:12;;;;;;;;;;;;;;;27.86;25.97;101215.72;5106708;28;19916;-66
2023/09/03 07:58:38;;;;;;;;;;;;;;;27.91;26.11;101199.94;5115100;28;19922;-66
2023/09/03 08:01:04;;;;;;;;;;;;;;;27.98;26.05;101200.41;5115324;28;20382;-66
2023/09/03 08:03:33;;;;;;;;;;;;;;;28.06;25.77;101214.69;5094428;28;19963;-66
2023/09/03 08:05:59;;;;;;;;;;;;;;;28.17;25.78;101214.28;5093482;28;19961;-66
2023/09/03 08:08:25;;;;;;;;;;;;;;;28.19;25.84;101216.75;5094137;28;19968;-66
2023/09/03 08:10:50;;;;;;;;;;;;;;;28.30;25.83;101215.50;5094415;28;20002;-66
2023/09/03 08:13:15;;;;;;;;;;;;;;;28.36;25.58;101203.31;5094334;28;19968;-66
2023/09/03 08:15:41;;;;;;;;;;;;;;;28.36;24.62;101203.31;5094499;28;19912;-66
2023/09/03 08:18:06;;;;;;;;;;;;;;;28.42;25.26;101208.75;5094078;28;19916;-66
2023/09/03 08:20:31;;;;;;;;;;;;;;;28.43;24.92;101202.94;5094385;28;19920;-66
2023/09/03 08:22:56;;;;;;;;;;;;;;;28.38;24.70;101206.59;5094191;28;19912;-66
2023/09/03 08:25:22;;;;;;;;;;;;;;;28.35;24.24;101215.47;5094229;28;19916;-66
2023/09/03 08:27:48;;;;;;;;;;;;;;;28.44;24.28;101212.06;5092876;28;19911;-66
2023/09/03 08:30:13;;;;;;;;;;;;;;;28.45;24.71;101216.44;5094276;28;19912;-66
2023/09/03 08:32:38;;;;;;;;;;;;;;;28.51;24.54;101213.34;5091506;28;20053;-66
2023/09/03 08:35:04;;;;;;;;;;;;;;;28.45;24.07;101208.97;5073680;28;19912;-66
2023/09/03 08:37:30;;;;;;;;;;;;;;;28.54;24.95;101215.50;5073816;28;19923;-66
2023/09/03 08:39:55;;;;;;;;;;;;;;;28.57;24.69;101214.13;5073946;28;19913;-66
2023/09/03 08:42:21;;;;;;;;;;;;;;;28.63;24.87;101212.09;5073473;28;20369;-66
2023/09/03 08:44:49;;;;;;;;;;;;;;;28.75;24.91;101210.56;5080337;28;19939;-66
2023/09/03 08:47:16;;;;;;;;;;;;;;;28.72;24.68;101211.13;5093611;28;19916;-66
2023/09/03 08:49:43;;;;;;;;;;;;;;;28.66;24.90;101219.78;5093686;28;20010;-66
2023/09/03 08:52:09;;;;;;;;;;;;;;;28.74;25.33;101208.88;5093435;28;20295;-66
2023/09/03 08:54:34;;;;;;;;;;;;;;;28.82;24.97;101212.94;5092843;28;20002;-66
2023/09/03 08:56:59;;;;;;;;;;;;;;;28.70;24.16;101218.09;5092030;28;19974;-66
2023/09/03 08:59:24;;;;;;;;;;;;;;;28.66;25.01;101215.09;5104154;28;19911;-66
2023/09/03 09:01:54;;;;;;;;;;;;;;;28.81;24.84;101221.50;5107672;28;20072;-66
2023/09/03 09:04:20;;;;;;;;;;;;;;;28.90;25.06;101225.25;5092923;28;20371;-66
2023/09/03 09:06:46;;;;;;;;;;;;;;;28.93;25.28;101221.91;5093232;28;20003;-66
2023/09/03 09:09:12;;;;;;;;;;;;;;;28.88;25.19;101227.50;5093479;28;20065;-66
2023/09/03 09:11:38;;;;;;;;;;;;;;;28.76;24.89;101226.00;5093004;28;19916;-66
2023/09/03 09:14:07;;;;;;;;;;;;;;;28.76;25.37;101228.75;5093456;28;19934;-66
2023/09/03 09:16:32;;;;;;;;;;;;;;;28.86;24.89;101218.69;5093187;28;19920;-66
2023/09/03 09:18:58;;;;;;;;;;;;;;;28.88;24.91;101221.97;5093317;28;19977;-66
2023/09/03 09:21:24;;;;;;;;;;;;;;;28.94;24.90;101223.56;5093442;28;19919;-66
2023/09/03 09:23:50;;;;;;;;;;;;;;;29.02;24.74;101220.09;5091928;28;20365;-66
2023/09/03 09:26:18;;;;;;;;;;;;;;;28.99;24.90;101220.69;5093554;28;19912;-65
2023/09/03 09:28:59;;;;;;;;;;;;;;;29.02;25.09;101228.41;5093168;28;19934;-65
2023/09/03 09:31:29;;;;;;;;;;;;;;;28.99;24.79;101228.19;5093263;28;19916;-66
2023/09/03 09:33:54;;;;;;;;;;;;;;;29.07;24.92;101233.03;5093367;28;20280;-66
2023/09/03 09:36:20;;;;;;;;;;;;;;;29.14;24.22;101230.72;5093353;28;19920;-66
2023/09/03 09:38:45;;;;;;;;;;;;;;;29.07;23.88;101233.03;5092750;28;20010;-66
2023/09/03 09:41:20;;;;;;;;;;;;;;;28.99;24.04;101248.34;5092907;28;19923;-66
2023/09/03 09:43:48;;;;;;;;;;;;;;;28.96;23.90;101235.94;5092869;28;19913;-66
2023/09/03 09:46:29;;;;;;;;;;;;;;;28.93;24.34;101236.53;5092665;28;19912;-66
2023/09/03 09:48:55;;;;;;;;;;;;;;;29.01;24.06;101237.84;5092923;28;20021;-66
2023/09/03 09:51:21;;;;;;;;;;;;;;;29.05;24.23;101240.78;5092544;28;20426;-66
2023/09/03 09:53:54;;;;;;;;;;;;;;;29.07;23.99;101239.41;5092101;28;19912;-66
2023/09/03 09:56:19;;;;;;;;;;;;;;;29.05;24.13;101247.16;5106719;28;19912;-66
2023/09/03 09:58:44;;;;;;;;;;;;;;;29.00;23.97;101233.41;5113198;28;19922;-66
2023/09/03 10:01:09;;;;;;;;;;;;;;;29.08;24.39;101229.16;5093214;28;19912;-67
2023/09/03 10:03:41;;;;;;;;;;;;;;;29.07;24.35;101231.09;5072160;28;19920;-67
2023/09/03 10:06:07;;;;;;;;;;;;;;;29.17;24.89;101221.03;5072628;28;19912;-66
2023/09/03 10:08:32;;;;;;;;;;;;;;;29.38;24.76;101219.56;5072262;28;19928;-66
2023/09/03 10:10:58;;;;;;;;;;;;;;;29.43;23.93;101222.25;5081518;28;19916;-66
2023/09/03 10:13:23;;;;;;;;;;;;;;;29.57;23.79;101227.00;5091851;28;20003;-66
2023/09/03 10:15:49;;;;;;;;;;;;;;;29.77;23.96;101228.59;5092440;28;19912;-65
2023/09/03 10:18:14;;;;;;;;;;;;;;;29.80;23.70;101233.53;5092521;28;19969;-66
2023/09/03 10:20:39;;;;;;;;;;;;;;;30.01;24.23;101239.53;5091112;28;19918;-66
2023/09/03 10:23:07;;;;;;;;;;;;;;;29.95;23.55;101240.75;5091820;28;20285;-66
2023/09/03 10:25:33;;;;;;;;;;;;;;;29.98;23.70;101234.56;5091956;28;19920;-67
2023/09/03 10:28:01;;;;;;;;;;;;;;;30.14;23.87;101233.16;5092565;28;19916;-67
2023/09/03 10:30:30;;;;;;;;;;;;;;;30.29;23.82;101227.34;5094819;28;19919;-66
2023/09/03 10:32:55;;;;;;;;;;;;;;;30.25;24.14;101214.38;5096589;28;20273;-67
2023/09/03 10:35:20;;;;;;;;;;;;;;;30.26;23.28;101219.63;5096270;28;19912;-66
2023/09/03 10:37:49;;;;;;;;;;;;;;;29.90;23.21;101219.50;5096363;28;20011;-67
2023/09/03 10:40:22;;;;;;;;;;;;;;;29.90;23.58;101216.72;5096303;28;19923;-66
2023/09/03 10:42:51;;;;;;;;;;;;;;;29.85;24.02;101212.13;5096109;28;20292;-67
2023/09/03 10:45:18;;;;;;;;;;;;;;;29.97;24.12;101214.38;5096068;28;19927;-66
2023/09/03 10:48:00;;;;;;;;;;;;;;;29.91;23.72;101208.13;5096126;28;19935;-66
2023/09/03 10:50:54;;;;;;;;;;;;;;;29.85;23.27;101205.78;5096055;28;19919;-67
2023/09/03 10:53:33;;;;;;;;;;;;;;;30.18;23.41;101200.13;5070663;28;19912;-67
2023/09/03 10:56:14;;;;;;;;;;;;;;;30.26;23.08;101205.75;5089854;28;19912;-67
2023/09/03 10:58:55;;;;;;;;;;;;;;;30.38;22.64;101216.34;5095464;28;19916;-67
2023/09/03 11:01:40;;;;;;;;;;;;;;;30.47;22.86;101211.72;5093560;28;19918;-67
2023/09/03 11:04:06;;;;;;;;;;;;;;;30.71;23.60;101218.97;5074639;28;19921;-67
2023/09/03 11:06:35;;;;;;;;;;;;;;;30.81;22.58;101216.00;5075531;28;19944;-67
2023/09/03 11:09:01;;;;;;;;;;;;;;;31.03;22.79;101217.16;5075385;28;19913;-67
2023/09/03 11:11:28;;;;;;;;;;;;;;;31.27;22.77;101205.75;5075349;28;19977;-66
2023/09/03 11:13:54;;;;;;;;;;;;;;;31.39;22.59;101207.94;5075266;28;19913;-66
2023/09/03 11:16:25;;;;;;;;;;;;;;;31.62;23.14;101203.22;5075314;28;20457;-66
2023/09/03 11:18:51;;;;;;;;;;;;;;;31.81;22.19;101205.75;5094218;28;19927;-67
2023/09/03 11:21:16;;;;;;;;;;;;;;;31.83;22.11;101212.66;5095703;28;19912;-66
2023/09/03 11:24:18;;;;;;;;;;;;;;;31.88;22.07;101216.44;5095361;28;19920;-66
2023/09/03 11:26:44;;;;;;;;;;;;;;;31.90;21.63;101214.16;5032549;28;19920;-66
2023/09/03 11:29:19;;;;;;;;;;;;;;;31.89;21.49;101207.78;5083028;28;19912;-66
2023/09/03 11:31:45;;;;;;;;;;;;;;;31.97;21.98;101214.50;5095133;28;20020;-66
2023/09/03 11:34:17;;;;;;;;;;;;;;;32.16;21.92;101209.53;5095224;28;19912;-66
2023/09/03 11:36:42;;;;;;;;;;;;;;;32.25;20.55;101211.53;5094951;28;20280;-66
2023/09/03 11:39:12;;;;;;;;;;;;;;;32.09;20.36;101209.16;5094883;28;19916;-66
2023/09/03 11:41:38;;;;;;;;;;;;;;;32.02;21.38;101208.78;5094070;28;19974;-66
2023/09/03 11:44:03;;;;;;;;;;;;;;;32.12;21.21;101216.06;5094753;28;19946;-66
2023/09/03 11:46:28;;;;;;;;;;;;;;;32.11;20.85;101215.22;5094747;28;19919;-66
2023/09/03 11:48:54;;;;;;;;;;;;;;;32.32;21.32;101212.69;5094792;28;19919;-66
2023/09/03 11:51:23;;;;;;;;;;;;;;;32.19;20.57;101222.78;5094619;28;19920;-66
2023/09/03 11:53:49;;;;;;;;;;;;;;;32.33;21.26;101216.28;5073515;28;19913;-66
2023/09/03 11:56:17;;;;;;;;;;;;;;;32.32;21.21;101225.78;5101122;28;19923;-66
2023/09/03 11:58:44;;;;;;;;;;;;;;;32.50;21.42;101219.09;5115049;28;19977;-66
2023/09/03 12:01:12;;;;;;;;;;;;;;;32.60;20.58;101218.03;5114586;28;19919;-66
2023/09/03 12:03:38;;;;;;;;;;;;;;;32.66;20.85;101227.03;5094138;28;19931;-66
2023/09/03 12:06:04;;;;;;;;;;;;;;;32.60;20.90;101226.34;5093585;28;20276;-66
2023/09/03 12:08:30;;;;;;;;;;;;;;;32.35;20.42;101227.91;5087213;28;20037;-66
2023/09/03 12:10:55;;;;;;;;;;;;;;;32.13;21.12;101212.13;5094439;28;19912;-66
2023/09/03 12:13:39;;;;;;;;;;;;;;;32.18;21.27;101215.59;5094319;28;20584;-66
2023/09/03 12:16:06;;;;;;;;;;;;;;;32.25;21.38;101211.53;5094174;28;19991;-66
2023/09/03 12:18:32;;;;;;;;;;;;;;;32.44;20.94;101220.41;5092890;28;19916;-66
2023/09/03 12:20:57;;;;;;;;;;;;;;;32.53;21.16;101206.53;5093026;28;20349;-66
2023/09/03 12:23:22;;;;;;;;;;;;;;;32.35;20.34;101203.69;5094106;28;19973;-66
2023/09/03 12:25:47;;;;;;;;;;;;;;;32.53;21.36;101210.13;5094318;28;19912;-66
2023/09/03 12:28:13;;;;;;;;;;;;;;;32.81;21.08;101203.47;5094371;28;20427;-66
2023/09/03 12:30:57;;;;;;;;;;;;;;;32.78;20.30;101204.94;5094101;28;19923;-66
2023/09/03 12:33:23;;;;;;;;;;;;;;;32.60;20.48;101218.03;5093873;28;20439;-66